PWSweather.com
Personal Weather Stations
Station Observations
IBAVARIA50
Munich, PlieningDE 85652

MunichPlieningDE 85652

Lat: 48.19916153, Lon: 11.79794312

Elevation: 504

Station Type: Davis Vantage Pro2

http://wetterstation-pliening.info

Latest ConditionsUpdated 4:15:30 AM GMT+01:01 Saturday, Jan 18, 2020
Currently Today's Max Today's Min Today's Average
Temperature 41.2°F5.1°C 43.7°F6.5°C 41.1°F5.1°C 42.6°F5.9°C
Dew Point 39.3°F4.1°C 40.0°F4.4°C 39.0°F3.9°C 39.5°F4.2°C
Winds 8.0 mph WSW12.9 kmh WSW 8.0 mph -12.9 kmh - - 3.6 mph 5.8 kmh
Wind Gusts 12.0 mph19.3 kmh 12.0 mph19.3 kmh - -
Humidity 93% 93% 84% 89%
Pressure 30.22 in1023.4 mb 30.22 in1023.4 mb 30.15 in1021.0 mb -
Precipitation - 0.07 in1.8 mm - -
Hour Temp Dew Point Humidity Winds Wind Gusts Pressure Precip Precip Rate Daily Precip Total
04:15 AM 41.2°F5.1°C 39.3°F4.1°C 93% 8.0 mph WSW12.9 kmh WSW 12.0 mph19.3 kmh 30.22 in1023.4 mb 0.06 in1.5 mm 0.00 in0.0 mm 0.07 in1.8 mm
04:10 AM 41.1°F5.1°C 39.2°F4.0°C 93% 3.0 mph WSW4.8 kmh WSW 11.0 mph17.7 kmh 30.22 in1023.4 mb 0.06 in1.5 mm 0.24 in6.1 mm 0.06 in1.5 mm
04:05 AM 41.1°F5.1°C 39.2°F4.0°C 93% 6.0 mph SW9.7 kmh SW 11.0 mph17.7 kmh 30.22 in1023.4 mb 0.04 in1.0 mm 0.00 in0.0 mm 0.05 in1.3 mm
04:00 AM 41.2°F5.1°C 39.3°F4.1°C 93% 3.0 mph SW4.8 kmh SW 7.0 mph11.3 kmh 30.21 in1023.0 mb 0.04 in1.0 mm 0.00 in0.0 mm 0.05 in1.3 mm
03:55 AM 41.3°F5.2°C 39.1°F3.9°C 92% 6.0 mph SW9.7 kmh SW 7.0 mph11.3 kmh 30.20 in1022.7 mb 0.04 in1.0 mm 0.00 in0.0 mm 0.04 in1.0 mm
03:50 AM 41.4°F5.2°C 39.2°F4.0°C 92% 6.0 mph SW9.7 kmh SW 7.0 mph11.3 kmh 30.20 in1022.7 mb 0.04 in1.0 mm 0.00 in0.0 mm 0.04 in1.0 mm
03:45 AM 41.5°F5.3°C 39.3°F4.1°C 92% 5.0 mph WSW8.0 kmh WSW 5.0 mph8.0 kmh 30.20 in1022.7 mb 0.04 in1.0 mm 0.00 in0.0 mm 0.04 in1.0 mm
03:40 AM 41.5°F5.3°C 39.3°F4.1°C 92% 4.0 mph SW6.4 kmh SW 7.0 mph11.3 kmh 30.20 in1022.7 mb 0.04 in1.0 mm 0.12 in3.0 mm 0.04 in1.0 mm
03:35 AM 41.6°F5.3°C 39.4°F4.1°C 92% 6.0 mph WSW9.7 kmh WSW 6.0 mph9.7 kmh 30.20 in1022.7 mb 0.03 in0.8 mm 0.00 in0.0 mm 0.03 in0.8 mm
03:30 AM 41.8°F5.4°C 39.6°F4.2°C 92% 3.0 mph SW4.8 kmh SW 5.0 mph8.0 kmh 30.20 in1022.7 mb 0.03 in0.8 mm 0.12 in3.0 mm 0.03 in0.8 mm
03:25 AM 41.8°F5.4°C 39.6°F4.2°C 92% 3.0 mph SW4.8 kmh SW 5.0 mph8.0 kmh 30.20 in1022.7 mb 0.02 in0.5 mm 0.00 in0.0 mm 0.02 in0.5 mm
03:20 AM 41.9°F5.5°C 39.7°F4.3°C 92% 4.0 mph SW6.4 kmh SW 5.0 mph8.0 kmh 30.20 in1022.7 mb 0.02 in0.5 mm 0.00 in0.0 mm 0.02 in0.5 mm
03:15 AM 42.0°F5.6°C 39.8°F4.3°C 92% 2.0 mph SW3.2 kmh SW 7.0 mph11.3 kmh 30.19 in1022.4 mb 0.02 in0.5 mm 0.12 in3.0 mm 0.02 in0.5 mm
03:10 AM 42.0°F5.6°C 39.5°F4.2°C 91% 3.0 mph WSW4.8 kmh WSW 7.0 mph11.3 kmh 30.19 in1022.4 mb 0.01 in0.3 mm 0.00 in0.0 mm 0.01 in0.3 mm
03:05 AM 42.2°F5.7°C 39.7°F4.3°C 91% 3.0 mph WSW4.8 kmh WSW 9.0 mph14.5 kmh 30.19 in1022.4 mb 0.01 in0.3 mm 0.00 in0.0 mm 0.01 in0.3 mm
03:00 AM 42.2°F5.7°C 39.7°F4.3°C 91% 5.0 mph WSW8.0 kmh WSW 8.0 mph12.9 kmh 30.19 in1022.4 mb 0.01 in0.3 mm 0.01 in0.3 mm 0.01 in0.3 mm
02:55 AM 42.3°F5.7°C 39.8°F4.3°C 91% 3.0 mph WSW4.8 kmh WSW 9.0 mph14.5 kmh 30.18 in1022.0 mb 0.00 in0.0 mm 0.00 in0.0 mm 0.00 in0.0 mm
02:50 AM 42.4°F5.8°C 39.9°F4.4°C 91% 6.0 mph WSW9.7 kmh WSW 9.0 mph14.5 kmh 30.18 in1022.0 mb 0.00 in0.0 mm 0.00 in0.0 mm 0.00 in0.0 mm
02:45 AM 42.4°F5.8°C 39.6°F4.2°C 90% 7.0 mph WSW11.3 kmh WSW 10.0 mph16.1 kmh 30.18 in1022.0 mb 0.00 in0.0 mm 0.00 in0.0 mm 0.00 in0.0 mm
02:40 AM 42.4°F5.8°C 39.6°F4.2°C 90% 3.0 mph SW4.8 kmh SW 7.0 mph11.3 kmh 30.18 in1022.0 mb 0.00 in0.0 mm 0.00 in0.0 mm 0.00 in0.0 mm
02:35 AM 42.4°F5.8°C 39.6°F4.2°C 90% 3.0 mph WSW4.8 kmh WSW 6.0 mph9.7 kmh 30.18 in1022.0 mb 0.00 in0.0 mm 0.00 in0.0 mm 0.00 in0.0 mm
02:30 AM 42.6°F5.9°C 39.8°F4.3°C 90% 2.0 mph WSW3.2 kmh WSW 3.0 mph4.8 kmh 30.17 in1021.7 mb 0.00 in0.0 mm 0.00 in0.0 mm 0.00 in0.0 mm
02:25 AM 42.7°F5.9°C 39.9°F4.4°C 90% 1.0 mph WSW1.6 kmh WSW 3.0 mph4.8 kmh 30.17 in1021.7 mb 0.00 in0.0 mm 0.00 in0.0 mm 0.00 in0.0 mm
02:20 AM 42.7°F5.9°C 39.9°F4.4°C 90% Calm Calm 3.0 mph4.8 kmh 30.17 in1021.7 mb 0.00 in0.0 mm 0.00 in0.0 mm 0.00 in0.0 mm
02:15 AM 42.7°F5.9°C 39.9°F4.4°C 90% 1.0 mph SW1.6 kmh SW 4.0 mph6.4 kmh 30.17 in1021.7 mb 0.00 in0.0 mm 0.00 in0.0 mm 0.00 in0.0 mm
02:10 AM 42.7°F5.9°C 39.9°F4.4°C 90% 3.0 mph WSW4.8 kmh WSW 4.0 mph6.4 kmh 30.17 in1021.7 mb 0.00 in0.0 mm 0.00 in0.0 mm 0.00 in0.0 mm
02:05 AM 42.8°F6.0°C 40.0°F4.4°C 90% 1.0 mph SW1.6 kmh SW 2.0 mph3.2 kmh 30.17 in1021.7 mb 0.00 in0.0 mm 0.00 in0.0 mm 0.00 in0.0 mm
02:00 AM 42.8°F6.0°C 40.0°F4.4°C 90% 2.0 mph SW3.2 kmh SW 2.0 mph3.2 kmh 30.17 in1021.7 mb 0.00 in0.0 mm 0.00 in0.0 mm 0.00 in0.0 mm
01:55 AM 42.7°F5.9°C 39.6°F4.2°C 89% 1.0 mph SW1.6 kmh SW 2.0 mph3.2 kmh 30.16 in1021.3 mb 0.00 in0.0 mm 0.00 in0.0 mm 0.00 in0.0 mm
01:50 AM 42.8°F6.0°C 39.7°F4.3°C 89% 1.0 mph SW1.6 kmh SW 3.0 mph4.8 kmh 30.16 in1021.3 mb 0.00 in0.0 mm 0.00 in0.0 mm 0.00 in0.0 mm
01:45 AM 42.9°F6.1°C 39.8°F4.3°C 89% 1.0 mph SW1.6 kmh SW 2.0 mph3.2 kmh 30.16 in1021.3 mb 0.00 in0.0 mm 0.00 in0.0 mm 0.00 in0.0 mm
01:40 AM 42.8°F6.0°C 39.7°F4.3°C 89% Calm Calm 3.0 mph4.8 kmh 30.16 in1021.3 mb 0.00 in0.0 mm 0.00 in0.0 mm 0.00 in0.0 mm
01:35 AM 42.9°F6.1°C 39.8°F4.3°C 89% 1.0 mph WSW1.6 kmh WSW 4.0 mph6.4 kmh 30.16 in1021.3 mb 0.00 in0.0 mm 0.00 in0.0 mm 0.00 in0.0 mm
01:30 AM 42.9°F6.1°C 39.8°F4.3°C 89% 3.0 mph WSW4.8 kmh WSW 4.0 mph6.4 kmh 30.16 in1021.3 mb 0.00 in0.0 mm 0.00 in0.0 mm 0.00 in0.0 mm
01:25 AM 42.9°F6.1°C 39.8°F4.3°C 89% 2.0 mph WSW3.2 kmh WSW 5.0 mph8.0 kmh 30.16 in1021.3 mb 0.00 in0.0 mm 0.00 in0.0 mm 0.00 in0.0 mm
01:20 AM 42.9°F6.1°C 39.5°F4.2°C 88% 2.0 mph WSW3.2 kmh WSW 5.0 mph8.0 kmh 30.16 in1021.3 mb 0.00 in0.0 mm 0.00 in0.0 mm 0.00 in0.0 mm
01:15 AM 42.9°F6.1°C 39.5°F4.2°C 88% 3.0 mph SW4.8 kmh SW 5.0 mph8.0 kmh 30.16 in1021.3 mb 0.00 in0.0 mm 0.00 in0.0 mm 0.00 in0.0 mm
01:10 AM 43.0°F6.1°C 39.6°F4.2°C 88% 4.0 mph W6.4 kmh W 6.0 mph9.7 kmh 30.15 in1021.0 mb 0.00 in0.0 mm 0.00 in0.0 mm 0.00 in0.0 mm
01:05 AM 43.0°F6.1°C 39.3°F4.1°C 87% 3.0 mph SW4.8 kmh SW 6.0 mph9.7 kmh 30.15 in1021.0 mb 0.00 in0.0 mm 0.00 in0.0 mm 0.00 in0.0 mm
01:00 AM 43.0°F6.1°C 39.3°F4.1°C 87% 5.0 mph WSW8.0 kmh WSW 7.0 mph11.3 kmh 30.16 in1021.3 mb 0.00 in0.0 mm 0.00 in0.0 mm 0.00 in0.0 mm
12:55 AM 43.1°F6.2°C 39.4°F4.1°C 87% 4.0 mph WSW6.4 kmh WSW 5.0 mph8.0 kmh 30.16 in1021.3 mb 0.00 in0.0 mm 0.00 in0.0 mm 0.00 in0.0 mm
12:50 AM 43.2°F6.2°C 39.5°F4.2°C 87% 4.0 mph SW6.4 kmh SW 7.0 mph11.3 kmh 30.15 in1021.0 mb 0.00 in0.0 mm 0.00 in0.0 mm 0.00 in0.0 mm
12:45 AM 43.3°F6.3°C 39.3°F4.1°C 86% 3.0 mph WSW4.8 kmh WSW 9.0 mph14.5 kmh 30.15 in1021.0 mb 0.00 in0.0 mm 0.00 in0.0 mm 0.00 in0.0 mm
12:40 AM 43.3°F6.3°C 39.3°F4.1°C 86% 3.0 mph WSW4.8 kmh WSW 9.0 mph14.5 kmh 30.15 in1021.0 mb 0.00 in0.0 mm 0.00 in0.0 mm 0.00 in0.0 mm
12:35 AM 43.4°F6.3°C 39.4°F4.1°C 86% 5.0 mph WSW8.0 kmh WSW 7.0 mph11.3 kmh 30.15 in1021.0 mb 0.00 in0.0 mm 0.00 in0.0 mm 0.00 in0.0 mm
12:30 AM 43.5°F6.4°C 39.2°F4.0°C 85% 5.0 mph W8.0 kmh W 11.0 mph17.7 kmh 30.15 in1021.0 mb 0.00 in0.0 mm 0.00 in0.0 mm 0.00 in0.0 mm
12:25 AM 43.6°F6.4°C 39.3°F4.1°C 85% 7.0 mph W11.3 kmh W 11.0 mph17.7 kmh 30.15 in1021.0 mb 0.00 in0.0 mm 0.00 in0.0 mm 0.00 in0.0 mm
12:20 AM 43.6°F6.4°C 39.0°F3.9°C 84% 5.0 mph W8.0 kmh W 9.0 mph14.5 kmh 30.15 in1021.0 mb 0.00 in0.0 mm 0.00 in0.0 mm 0.00 in0.0 mm
12:15 AM 43.6°F6.4°C 39.0°F3.9°C 84% 7.0 mph WSW11.3 kmh WSW 9.0 mph14.5 kmh 30.15 in1021.0 mb 0.00 in0.0 mm 0.00 in0.0 mm 0.00 in0.0 mm
12:10 AM 43.6°F6.4°C 39.0°F3.9°C 84% 7.0 mph SW11.3 kmh SW 11.0 mph17.7 kmh 30.15 in1021.0 mb 0.00 in0.0 mm 0.00 in0.0 mm 0.00 in0.0 mm
12:05 AM 43.6°F6.4°C 39.0°F3.9°C 84% 6.0 mph SW9.7 kmh SW 9.0 mph14.5 kmh 30.15 in1021.0 mb 0.00 in0.0 mm 0.00 in0.0 mm 0.00 in0.0 mm
12:00 AM 43.7°F6.5°C 39.1°F3.9°C 84% 4.0 mph WSW6.4 kmh WSW 6.0 mph9.7 kmh 30.15 in1021.0 mb 0.00 in0.0 mm 0.00 in0.0 mm 0.00 in0.0 mm